Time;durP1;ratioP1;P1;durP2;ratioP2;P2;SDS_P1;SDS_P2;PMS_P1;PMS_P2;Temp;Humidity;BMP_temperature;BMP_pressure;BME280_temperature;BME280_humidity;BME280_pressure;Samples;Min_cycle;Max_cycle;Signal;HPM_P1;HPM_P2
2024/01/22 00:00:13;;;;;;;1.70;1.60;;;;;;;-143.84;88.50;45275.66;5071711;28;20217;-56
2024/01/22 00:02:41;;;;;;;0.80;0.50;;;;;;;-143.84;88.37;45289.00;5071645;28;20198;-56
2024/01/22 00:05:09;;;;;;;0.80;0.60;;;;;;;-143.84;88.65;45317.56;5070314;28;20199;-57
2024/01/22 00:07:36;;;;;;;0.80;0.47;;;;;;;-143.84;88.76;45285.19;5070950;28;20276;-56
2024/01/22 00:10:05;;;;;;;0.80;0.50;;;;;;;-143.84;88.41;45275.66;5071609;28;20319;-57
2024/01/22 00:12:33;;;;;;;0.80;0.50;;;;;;;-143.84;88.27;45273.78;5070956;28;20292;-56
2024/01/22 00:15:00;;;;;;;1.23;0.98;;;;;;;-143.84;88.14;45268.06;5071106;28;20198;-56
2024/01/22 00:17:27;;;;;;;3.78;1.23;;;;;;;-143.84;88.39;45306.13;5070904;28;20290;-56
2024/01/22 00:19:54;;;;;;;0.80;0.65;;;;;;;-143.84;88.30;45308.03;5070905;28;20268;-56
2024/01/22 00:22:21;;;;;;;0.80;0.57;;;;;;;-143.84;87.85;45292.81;5070992;28;20190;-56
2024/01/22 00:24:48;;;;;;;0.80;0.40;;;;;;;-143.84;87.90;45277.56;5070971;28;20256;-56
2024/01/22 00:27:17;;;;;;;0.80;0.50;;;;;;;-143.84;87.79;45277.56;5070992;28;20640;-56
2024/01/22 00:29:44;;;;;;;4.85;1.35;;;;;;;-143.84;88.02;45285.19;5070870;28;20218;-56
2024/01/22 00:32:11;;;;;;;0.80;0.50;;;;;;;-143.84;88.08;45268.06;5070828;28;20203;-57
2024/01/22 00:34:38;;;;;;;0.80;0.70;;;;;;;-143.84;87.84;45313.75;5070688;28;20199;-56
2024/01/22 00:37:05;;;;;;;1.45;1.35;;;;;;;-143.84;87.93;45294.72;5070914;28;20641;-56
2024/01/22 00:39:32;;;;;;;0.80;0.50;;;;;;;-143.84;88.25;45292.81;5070992;28;20248;-56
2024/01/22 00:42:00;;;;;;;0.80;0.50;;;;;;;-143.84;88.24;45285.19;5070827;28;20205;-56
2024/01/22 00:44:28;;;;;;;0.80;0.80;;;;;;;-143.84;88.44;45269.97;5070681;28;20198;-56
2024/01/22 00:46:55;;;;;;;0.80;0.47;;;;;;;-143.84;88.19;45266.16;5070434;28;20246;-56
2024/01/22 00:49:22;;;;;;;0.80;0.50;;;;;;;-143.84;87.71;45289.00;5070134;28;20257;-57
2024/01/22 00:51:49;;;;;;;0.80;0.50;;;;;;;-143.84;87.62;45266.16;5070586;28;20206;-57
2024/01/22 00:54:17;;;;;;;0.80;0.60;;;;;;;-143.84;87.73;45308.03;5070139;28;20202;-56
2024/01/22 00:56:44;;;;;;;0.80;0.68;;;;;;;-143.84;87.29;45308.03;5070289;28;20202;-56
2024/01/22 00:59:11;;;;;;;1.17;1.02;;;;;;;-143.84;87.25;45294.72;5070037;28;20199;-57
2024/01/22 01:01:39;;;;;;;0.80;0.60;;;;;;;-143.84;87.53;45302.34;5070072;28;20240;-56
2024/01/22 01:04:06;;;;;;;0.80;0.50;;;;;;;-143.84;87.22;45281.38;5070266;28;20191;-56
2024/01/22 01:06:34;;;;;;;0.80;0.50;;;;;;;-143.84;87.65;45296.63;5070303;28;20280;-57
2024/01/22 01:09:02;;;;;;;0.80;0.50;;;;;;;-143.84;87.40;45268.06;5070145;28;20196;-56
2024/01/22 01:11:29;;;;;;;0.80;0.50;;;;;;;-143.84;86.67;45269.97;5069979;28;20226;-56
2024/01/22 01:13:56;;;;;;;0.80;0.52;;;;;;;-143.84;86.79;45298.53;5070260;28;20198;-56
2024/01/22 01:16:23;;;;;;;0.80;0.40;;;;;;;-143.84;86.42;45292.81;5069749;28;20257;-57
2024/01/22 01:18:51;;;;;;;0.80;0.57;;;;;;;-143.84;86.78;45317.56;5069963;28;20199;-56
2024/01/22 01:21:22;;;;;;;0.80;0.65;;;;;;;-143.84;87.00;45281.38;5069976;28;20614;-56
2024/01/22 01:23:49;;;;;;;0.93;0.82;;;;;;;-143.84;86.95;45277.56;5069626;28;20205;-56
2024/01/22 01:26:16;;;;;;;0.80;0.50;;;;;;;-143.84;87.25;45290.91;5070056;28;20603;-57
2024/01/22 01:28:44;;;;;;;0.80;0.60;;;;;;;-143.84;87.30;45262.34;5070052;28;20198;-56
2024/01/22 01:31:11;;;;;;;0.80;0.68;;;;;;;-143.84;87.40;45281.38;5069847;28;20230;-56
2024/01/22 01:33:38;;;;;;;2.38;0.98;;;;;;;-143.84;87.62;45285.19;5070023;28;20652;-56
2024/01/22 01:36:07;;;;;;;0.80;0.50;;;;;;;-143.84;87.76;45289.00;5069755;28;20260;-56
2024/01/22 01:38:34;;;;;;;0.80;0.47;;;;;;;-143.84;87.96;45289.00;5069718;28;20210;-56
2024/01/22 01:41:02;;;;;;;2.75;1.90;;;;;;;-143.84;88.49;45266.16;5069904;28;20203;-57
2024/01/22 01:43:29;;;;;;;0.80;0.50;;;;;;;-143.84;88.53;45273.78;5069311;28;20199;-56
2024/01/22 01:45:56;;;;;;;0.80;0.50;;;;;;;-143.84;88.76;45296.63;5069633;28;20252;-56
2024/01/22 01:48:23;;;;;;;0.80;0.50;;;;;;;-143.84;88.91;45298.53;5069168;28;20232;-56
2024/01/22 01:50:51;;;;;;;0.80;0.50;;;;;;;-143.84;88.85;45296.63;5069254;28;20218;-57
2024/01/22 01:53:20;;;;;;;0.80;0.77;;;;;;;-143.84;88.62;45266.16;5070020;28;20197;-56
2024/01/22 01:55:47;;;;;;;0.80;0.60;;;;;;;-143.84;88.88;45292.81;5069291;28;20233;-56
2024/01/22 01:58:15;;;;;;;0.80;0.60;;;;;;;-143.84;89.46;45269.97;5069538;28;20203;-56
2024/01/22 02:00:48;;;;;;;0.80;0.68;;;;;;;-143.84;89.42;45279.47;5069549;28;20713;-56
2024/01/22 02:03:15;;;;;;;0.80;0.45;;;;;;;-143.84;89.33;45275.66;5069110;28;20195;-56
2024/01/22 02:05:42;;;;;;;1.02;0.93;;;;;;;-143.84;88.81;45279.47;5069207;28;20198;-56
2024/01/22 02:08:10;;;;;;;0.80;0.70;;;;;;;-143.84;88.99;45290.91;5069137;28;20191;-57
2024/01/22 02:10:38;;;;;;;0.80;0.60;;;;;;;-143.84;88.84;45279.47;5068944;28;20626;-56
2024/01/22 02:13:09;;;;;;;0.80;0.50;;;;;;;-143.84;88.83;45302.34;5069129;28;20199;-56
2024/01/22 02:15:36;;;;;;;0.80;0.50;;;;;;;-143.84;88.70;45287.09;5068171;28;20290;-56
2024/01/22 02:18:04;;;;;;;0.90;0.80;;;;;;;-143.84;88.31;45273.78;5068560;28;20615;-57
2024/01/22 02:20:31;;;;;;;0.98;0.88;;;;;;;-143.84;88.06;45281.38;5067914;28;20191;-56
2024/01/22 02:23:04;;;;;;;0.90;0.50;;;;;;;-143.84;88.50;45306.13;5068265;28;20584;-56
2024/01/22 02:25:31;;;;;;;0.80;0.60;;;;;;;-143.84;88.47;45275.66;5069514;28;20207;-56
2024/01/22 02:27:59;;;;;;;0.80;0.50;;;;;;;-143.84;88.64;45285.19;5071389;28;20201;-57
2024/01/22 02:30:26;;;;;;;1.23;1.08;;;;;;;-143.84;88.87;45283.28;5072680;28;20268;-56
2024/01/22 02:32:53;;;;;;;0.80;0.60;;;;;;;-143.84;89.01;45269.97;5073052;28;20209;-57
2024/01/22 02:35:21;;;;;;;0.80;0.50;;;;;;;-143.84;88.93;45290.91;5072840;28;20203;-56
2024/01/22 02:37:49;;;;;;;0.80;0.50;;;;;;;-143.84;89.21;45304.25;5073005;28;20202;-56
2024/01/22 02:40:17;;;;;;;0.80;0.50;;;;;;;-143.84;89.48;45311.84;5073139;28;20984;-56
2024/01/22 02:42:45;;;;;;;4.60;2.05;;;;;;;-143.84;89.53;45277.56;5072951;28;20202;-56
2024/01/22 02:45:12;;;;;;;0.80;0.60;;;;;;;-143.84;89.69;45268.06;5072651;28;20195;-56
2024/01/22 02:47:39;;;;;;;1.02;0.93;;;;;;;-143.84;89.45;45298.53;5072609;28;20206;-56
2024/01/22 02:50:08;;;;;;;0.80;0.50;;;;;;;-143.84;89.91;45287.09;5072844;28;20219;-57
2024/01/22 02:52:35;;;;;;;0.80;0.50;;;;;;;-143.84;90.09;45262.34;5072722;28;20656;-56
2024/01/22 02:55:02;;;;;;;0.80;0.50;;;;;;;-143.84;90.39;45298.53;5072719;28;20199;-56
2024/01/22 02:57:31;;;;;;;0.80;0.50;;;;;;;-143.84;91.04;45277.56;5072627;28;20203;-57
2024/01/22 02:59:58;;;;;;;0.90;0.80;;;;;;;-143.84;90.98;45304.25;5072573;28;20204;-56
2024/01/22 03:02:25;;;;;;;0.80;0.50;;;;;;;-143.84;91.12;45290.91;5072791;28;20268;-56
2024/01/22 03:04:52;;;;;;;0.80;0.60;;;;;;;-143.84;91.44;45308.03;5072330;28;20190;-56
2024/01/22 03:07:19;;;;;;;2.13;2.03;;;;;;;-143.84;91.68;45285.19;5072862;28;20206;-56
2024/01/22 03:09:46;;;;;;;0.80;0.60;;;;;;;-143.84;91.48;45292.81;5072484;28;20203;-57
2024/01/22 03:12:13;;;;;;;0.80;0.50;;;;;;;-143.84;91.55;45281.38;5073223;28;20237;-56
2024/01/22 03:14:42;;;;;;;2.35;1.30;;;;;;;-143.84;91.89;45306.13;5072395;28;20195;-56
2024/01/22 03:17:09;;;;;;;0.80;0.57;;;;;;;-143.84;92.25;45296.63;5072153;28;20195;-56
2024/01/22 03:19:37;;;;;;;1.08;0.98;;;;;;;-143.84;92.29;45289.00;5071935;28;20206;-56
2024/01/22 03:22:04;;;;;;;0.80;0.50;;;;;;;-143.84;92.32;45269.97;5072480;28;20281;-56
2024/01/22 03:24:31;;;;;;;0.80;0.50;;;;;;;-143.84;92.10;45313.75;5072310;28;20660;-57
2024/01/22 03:26:58;;;;;;;0.80;0.50;;;;;;;-143.84;92.53;45306.13;5072244;28;20203;-56
2024/01/22 03:29:26;;;;;;;0.93;0.82;;;;;;;-143.84;92.26;45296.63;5072062;28;20191;-56
2024/01/22 03:31:54;;;;;;;1.23;0.88;;;;;;;-143.84;92.47;45321.38;5071917;28;20288;-56
2024/01/22 03:34:22;;;;;;;0.80;0.75;;;;;;;-143.84;92.19;45290.91;5071843;28;20205;-56
2024/01/22 03:36:49;;;;;;;0.80;0.60;;;;;;;-143.84;92.23;45319.47;5071927;28;20260;-56
2024/01/22 03:39:16;;;;;;;1.55;1.00;;;;;;;-143.84;92.09;45290.91;5071639;28;20195;-57
2024/01/22 03:41:43;;;;;;;1.10;0.93;;;;;;;-143.84;92.08;45279.47;5071705;28;20191;-56
2024/01/22 03:44:10;;;;;;;0.80;0.55;;;;;;;-143.84;92.34;45300.44;5071501;28;20212;-56
2024/01/22 03:46:38;;;;;;;0.80;0.60;;;;;;;-143.84;92.14;45296.63;5071848;28;20652;-56
2024/01/22 03:49:06;;;;;;;1.98;1.33;;;;;;;-143.84;92.00;45262.34;5071818;28;20263;-56
2024/01/22 03:51:33;;;;;;;0.80;0.50;;;;;;;-143.84;91.98;45271.88;5090426;28;20221;-56
2024/01/22 03:54:00;;;;;;;0.80;0.50;;;;;;;-143.84;91.89;45304.25;5092015;28;20190;-56
2024/01/22 03:56:27;;;;;;;1.10;1.00;;;;;;;-143.84;91.70;45292.81;5091815;28;20254;-56
2024/01/22 03:58:55;;;;;;;1.17;1.08;;;;;;;-143.84;91.38;45294.72;5091339;28;20252;-56
2024/01/22 04:01:22;;;;;;;0.80;0.55;;;;;;;-143.84;91.35;45302.34;5091854;28;20241;-56
2024/01/22 04:03:51;;;;;;;6.32;1.77;;;;;;;-143.84;91.14;45311.84;5091630;28;20190;-56
2024/01/22 04:06:19;;;;;;;0.80;0.50;;;;;;;-143.84;91.23;45298.53;5091335;28;20201;-56
2024/01/22 04:08:46;;;;;;;0.80;0.63;;;;;;;-143.84;90.97;45296.63;5091460;28;20198;-56
2024/01/22 04:11:13;;;;;;;2.85;0.98;;;;;;;-143.84;90.93;45304.25;5091343;28;20245;-56
2024/01/22 04:13:42;;;;;;;0.80;0.70;;;;;;;-143.84;90.60;45279.47;5079155;28;20201;-56
2024/01/22 04:16:13;;;;;;;0.80;0.70;;;;;;;-143.84;90.62;45304.25;5071016;28;20216;-57
2024/01/22 04:18:41;;;;;;;0.80;0.50;;;;;;;-143.84;90.72;45277.56;5071428;28;20199;-57
2024/01/22 04:21:08;;;;;;;0.90;0.80;;;;;;;-143.84;90.46;45258.53;5071529;28;20191;-57
2024/01/22 04:23:37;;;;;;;0.80;0.50;;;;;;;-143.84;89.97;45309.94;5071167;28;20248;-56
2024/01/22 04:26:05;;;;;;;1.25;0.60;;;;;;;-143.84;89.76;45298.53;5070848;28;20195;-56
2024/01/22 04:28:32;;;;;;;0.80;0.50;;;;;;;-143.84;89.92;45285.19;5070727;28;20194;-56
2024/01/22 04:31:00;;;;;;;0.80;0.50;;;;;;;-143.84;89.67;45275.66;5085436;28;20229;-56
2024/01/22 04:33:27;;;;;;;0.80;0.60;;;;;;;-143.84;89.30;45258.53;5091320;28;20198;-56
2024/01/22 04:35:54;;;;;;;0.80;0.50;;;;;;;-143.84;89.41;45285.19;5090729;28;20213;-56
2024/01/22 04:38:22;;;;;;;1.05;0.95;;;;;;;-143.84;89.29;45285.19;5090680;28;20197;-57
2024/01/22 04:40:50;;;;;;;0.80;0.50;;;;;;;-143.84;88.73;45302.34;5090433;28;20198;-56
2024/01/22 04:43:17;;;;;;;0.80;0.50;;;;;;;-143.84;88.26;45298.53;5090923;28;20193;-56
2024/01/22 04:45:44;;;;;;;0.80;0.52;;;;;;;-143.84;88.31;45309.94;5090348;28;20319;-56
2024/01/22 04:48:12;;;;;;;1.23;1.10;;;;;;;-143.84;87.90;45294.72;5090511;28;20198;-56
2024/01/22 04:50:39;;;;;;;0.80;0.60;;;;;;;-143.84;87.99;45283.28;5089877;28;20198;-56
2024/01/22 04:53:06;;;;;;;2.03;1.20;;;;;;;-143.84;87.93;45283.28;5090502;28;20212;-56
2024/01/22 04:55:33;;;;;;;0.80;0.60;;;;;;;-143.84;87.93;45287.09;5090031;28;20201;-56
2024/01/22 04:58:02;;;;;;;0.80;0.57;;;;;;;-143.84;87.93;45289.00;5072896;28;20252;-56
2024/01/22 05:00:29;;;;;;;0.80;0.50;;;;;;;-143.84;87.40;45283.28;5070315;28;20207;-56
2024/01/22 05:02:56;;;;;;;0.80;0.50;;;;;;;-143.84;86.94;45306.13;5069948;28;20205;-56
2024/01/22 05:05:23;;;;;;;0.80;0.60;;;;;;;-143.84;86.96;45287.09;5070129;28;20313;-56
2024/01/22 05:07:50;;;;;;;0.80;0.50;;;;;;;-143.84;86.98;45289.00;5070120;28;20643;-56
2024/01/22 05:10:18;;;;;;;0.80;0.55;;;;;;;-143.84;86.37;45277.56;5070349;28;20225;-56
2024/01/22 05:12:45;;;;;;;0.80;0.47;;;;;;;-143.84;85.98;45266.16;5069489;28;20296;-56
2024/01/22 05:15:14;;;;;;;0.80;0.40;;;;;;;-143.84;85.62;45275.66;5069955;28;20244;-56
2024/01/22 05:17:41;;;;;;;2.85;1.38;;;;;;;-143.84;85.47;45254.72;5069824;28;20194;-56
2024/01/22 05:20:10;;;;;;;2.17;0.95;;;;;;;-143.84;85.28;45275.66;5069711;28;20199;-56
2024/01/22 05:22:37;;;;;;;2.58;2.38;;;;;;;-143.84;85.25;45292.81;5069931;28;20624;-56
2024/01/22 05:25:04;;;;;;;1.08;0.95;;;;;;;-143.84;85.04;45292.81;5069540;28;20206;-56
2024/01/22 05:27:32;;;;;;;0.80;0.50;;;;;;;-143.84;84.85;45281.38;5069592;28;20194;-56
2024/01/22 05:29:59;;;;;;;1.30;1.20;;;;;;;-143.84;84.78;45285.19;5069862;28;20552;-56
2024/01/22 05:32:28;;;;;;;0.80;0.50;;;;;;;-143.84;84.69;45287.09;5080097;28;20571;-56
2024/01/22 05:34:55;;;;;;;0.80;0.50;;;;;;;-143.84;84.63;45264.25;5085783;28;20325;-56
2024/01/22 05:37:22;;;;;;;0.80;0.50;;;;;;;-143.84;84.42;45260.44;5088639;28;20206;-56
2024/01/22 05:39:49;;;;;;;0.80;0.50;;;;;;;-143.84;83.91;45277.56;5090070;28;21073;-56
2024/01/22 05:42:16;;;;;;;0.80;0.50;;;;;;;-143.84;83.29;45306.13;5088108;28;20206;-56
2024/01/22 05:44:43;;;;;;;1.90;1.80;;;;;;;-143.84;83.53;45304.25;5090150;28;20970;-56
2024/01/22 05:47:11;;;;;;;0.80;0.60;;;;;;;-143.84;82.73;45266.16;5089742;28;20872;-56
2024/01/22 05:49:41;;;;;;;0.80;0.50;;;;;;;-143.84;81.99;45271.88;5089768;28;20198;-56
2024/01/22 05:52:09;;;;;;;0.80;0.57;;;;;;;-143.84;82.41;45290.91;5089813;28;20228;-56
2024/01/22 05:54:36;;;;;;;0.80;0.40;;;;;;;-143.84;82.05;45281.38;5089548;28;20201;-56
2024/01/22 05:57:04;;;;;;;0.80;0.50;;;;;;;-143.84;81.97;45268.06;5089549;28;20201;-56
2024/01/22 05:59:31;;;;;;;1.60;1.50;;;;;;;-143.84;81.98;45281.38;5089600;28;20209;-56
2024/01/22 06:01:58;;;;;;;1.55;1.15;;;;;;;-143.84;82.10;45285.19;5079634;28;20196;-56
2024/01/22 06:04:26;;;;;;;0.80;0.70;;;;;;;-143.84;81.50;45283.28;5069140;28;20211;-56
2024/01/22 06:06:54;;;;;;;0.88;0.70;;;;;;;-143.84;81.93;45290.91;5069272;28;20251;-56
2024/01/22 06:09:21;;;;;;;0.80;0.50;;;;;;;-143.84;82.01;45268.06;5069426;28;20191;-57
2024/01/22 06:11:48;;;;;;;1.65;1.40;;;;;;;-143.84;81.95;45273.78;5068999;28;20226;-56
2024/01/22 06:14:16;;;;;;;0.80;0.60;;;;;;;-143.84;82.28;45268.06;5069215;28;20194;-56
2024/01/22 06:16:46;;;;;;;0.80;0.70;;;;;;;-143.84;82.10;45250.91;5069146;28;20523;-56
2024/01/22 06:19:13;;;;;;;0.80;0.50;;;;;;;-143.84;81.46;45264.25;5069056;28;20660;-56
2024/01/22 06:21:40;;;;;;;1.52;1.35;;;;;;;-143.84;81.50;45279.47;5069113;28;20194;-56
2024/01/22 06:24:09;;;;;;;2.87;2.20;;;;;;;-143.84;81.30;45277.56;5068942;28;20207;-56
2024/01/22 06:26:36;;;;;;;0.80;0.40;;;;;;;-143.84;81.60;45266.16;5068891;28;20445;-57
2024/01/22 06:29:03;;;;;;;0.80;0.60;;;;;;;-143.84;81.28;45258.53;5069249;28;20448;-56
2024/01/22 06:31:30;;;;;;;1.00;0.90;;;;;;;-143.84;81.65;45275.66;5069332;28;20226;-56
2024/01/22 06:33:57;;;;;;;0.80;0.50;;;;;;;-143.84;81.46;45260.44;5083359;28;20459;-56
2024/01/22 06:36:28;;;;;;;0.80;0.40;;;;;;;-143.84;81.62;45283.28;5089278;28;20194;-56
2024/01/22 06:38:55;;;;;;;0.80;0.63;;;;;;;-143.84;81.13;45292.81;5089105;28;20444;-56
2024/01/22 06:41:25;;;;;;;0.80;0.60;;;;;;;-143.84;80.91;45264.25;5089127;28;20197;-57
2024/01/22 06:43:52;;;;;;;2.53;1.55;;;;;;;-143.84;80.65;45258.53;5089256;28;20444;-56
2024/01/22 06:46:19;;;;;;;0.80;0.75;;;;;;;-143.84;80.00;45285.19;5089405;28;20202;-57
2024/01/22 06:48:47;;;;;;;0.80;0.40;;;;;;;-143.84;80.08;45300.44;5089242;28;20202;-57
2024/01/22 06:51:14;;;;;;;0.80;0.50;;;;;;;-143.84;79.73;45273.78;5089209;28;20447;-56
2024/01/22 06:53:40;;;;;;;1.07;0.97;;;;;;;-143.84;79.47;45266.16;5089116;28;20199;-56
2024/01/22 06:56:08;;;;;;;1.05;0.95;;;;;;;-143.84;79.33;45254.72;5089202;28;20452;-56
2024/01/22 06:58:37;;;;;;;2.93;2.03;;;;;;;-143.84;79.04;45281.38;5089402;28;20202;-56
2024/01/22 07:01:05;;;;;;;0.80;0.40;;;;;;;-143.84;78.94;45239.50;5088795;28;20504;-56
2024/01/22 07:03:33;;;;;;;0.80;0.50;;;;;;;-143.84;78.56;45281.38;5089158;28;20518;-56
2024/01/22 07:06:00;;;;;;;0.80;0.50;;;;;;;-143.84;78.37;45243.31;5088590;28;20527;-57
2024/01/22 07:08:27;;;;;;;1.00;0.90;;;;;;;-143.84;78.09;45249.00;5088672;28;20439;-56
2024/01/22 07:10:54;;;;;;;0.80;0.50;;;;;;;-143.84;77.61;45262.34;5088966;28;20483;-56
2024/01/22 07:13:22;;;;;;;0.80;0.50;;;;;;;-143.84;76.73;45254.72;5090150;28;20486;-56
2024/01/22 07:15:50;;;;;;;1.73;1.17;;;;;;;-143.84;75.69;45264.25;5092665;28;20504;-56
2024/01/22 07:18:18;;;;;;;0.80;0.40;;;;;;;-143.84;74.50;45266.16;5092431;28;20476;-56
2024/01/22 07:20:45;;;;;;;0.90;0.73;;;;;;;-143.84;73.86;45245.19;5092149;28;20525;-56
2024/01/22 07:23:12;;;;;;;0.80;0.50;;;;;;;-143.84;72.76;45268.06;5092493;28;21011;-56
2024/01/22 07:25:39;;;;;;;1.93;1.83;;;;;;;-143.84;71.79;45249.00;5092318;28;20471;-57
2024/01/22 07:28:07;;;;;;;1.30;1.17;;;;;;;-143.84;70.41;45273.78;5092219;28;20445;-56
2024/01/22 07:30:36;;;;;;;0.80;0.70;;;;;;;-143.84;70.22;45256.63;5092315;28;20854;-57
2024/01/22 07:33:05;;;;;;;0.80;0.50;;;;;;;-143.84;69.44;45241.41;5092355;28;20882;-56
2024/01/22 07:35:33;;;;;;;0.80;0.50;;;;;;;-143.84;69.52;45254.72;5092105;28;20454;-57
2024/01/22 07:38:00;;;;;;;0.80;0.50;;;;;;;-143.84;68.83;45247.09;5091784;28;20483;-57
2024/01/22 07:40:28;;;;;;;0.80;0.50;;;;;;;-143.84;69.05;45243.31;5092420;28;20443;-56
2024/01/22 07:42:55;;;;;;;0.80;0.57;;;;;;;-143.84;68.78;45218.53;5092242;28;20521;-56
2024/01/22 07:45:22;;;;;;;0.80;0.40;;;;;;;-143.84;68.46;45249.00;5091684;28;20443;-56
2024/01/22 07:47:49;;;;;;;1.10;0.67;;;;;;;-143.84;67.94;45247.09;5091681;28;20450;-56
2024/01/22 07:50:18;;;;;;;0.80;0.50;;;;;;;-143.84;67.47;45229.97;5091640;28;20439;-57
2024/01/22 07:52:45;;;;;;;0.80;0.50;;;;;;;-143.84;66.62;45249.00;5091438;28;20479;-56
2024/01/22 07:55:13;;;;;;;0.80;0.60;;;;;;;-143.84;65.62;45228.06;5091592;28;20458;-56
2024/01/22 07:57:40;;;;;;;0.80;0.60;;;;;;;-143.84;63.54;45239.50;5091466;28;20787;-56
2024/01/22 08:00:11;;;;;;;0.80;0.50;;;;;;;-143.84;63.21;45231.88;5091862;28;20437;-56
2024/01/22 08:02:39;;;;;;;1.53;1.43;;;;;;;-143.84;61.05;45245.19;5091583;28;20451;-57
2024/01/22 08:05:07;;;;;;;0.80;0.50;;;;;;;-143.84;59.94;45239.50;5091493;28;20750;-57
2024/01/22 08:07:35;;;;;;;0.80;0.70;;;;;;;-143.84;59.68;45201.41;5091185;28;20451;-57
2024/01/22 08:10:03;;;;;;;1.23;1.03;;;;;;;-143.84;56.88;45237.59;5091243;28;20440;-57
2024/01/22 08:12:30;;;;;;;1.33;1.00;;;;;;;-143.84;55.84;45209.03;5090912;28;20580;-57
2024/01/22 08:14:58;;;;;;;1.40;1.10;;;;;;;-143.84;55.14;45228.06;5091313;28;20448;-57
2024/01/22 08:17:25;;;;;;;0.80;0.50;;;;;;;-143.84;54.66;45233.78;5091361;28;20445;-57
2024/01/22 08:19:52;;;;;;;1.23;1.00;;;;;;;-143.84;53.91;45209.03;5091509;28;20438;-57
2024/01/22 08:22:19;;;;;;;1.83;1.73;;;;;;;-143.84;51.95;45239.50;5091031;28;20462;-57
2024/01/22 08:24:48;;;;;;;1.50;1.00;;;;;;;-143.84;51.21;45228.06;5090085;28;20457;-57
2024/01/22 08:27:15;;;;;;;4.40;2.30;;;;;;;-143.84;50.25;45210.94;5091150;28;20460;-56
2024/01/22 08:29:42;;;;;;;1.33;1.23;;;;;;;-143.84;49.39;45222.34;5090937;28;20980;-57
2024/01/22 08:32:09;;;;;;;0.80;0.70;;;;;;;-143.84;49.14;45214.72;5090865;28;20498;-57
2024/01/22 08:34:38;;;;;;;1.73;1.20;;;;;;;-143.84;49.48;45205.22;5090759;28;20439;-57
2024/01/22 08:37:06;;;;;;;0.90;0.77;;;;;;;-143.84;48.78;45193.78;5090914;28;20517;-58
2024/01/22 08:39:33;;;;;;;1.00;0.90;;;;;;;-143.84;48.47;45210.94;5090951;28;21019;-57
2024/01/22 08:42:02;;;;;;;0.80;0.50;;;;;;;-143.84;48.23;45216.63;5090766;28;20447;-57
2024/01/22 08:44:29;;;;;;;1.53;1.43;;;;;;;-143.84;46.87;45193.78;5090198;28;20965;-57
2024/01/22 08:46:56;;;;;;;2.67;1.37;;;;;;;-143.84;46.04;45210.94;5089729;28;20435;-58
2024/01/22 08:49:24;;;;;;;0.80;0.53;;;;;;;-143.84;44.91;45235.69;5090240;28;20942;-57
2024/01/22 08:51:51;;;;;;;1.13;1.03;;;;;;;-143.84;44.63;45186.16;5089413;28;20439;-58
2024/01/22 08:54:18;;;;;;;2.07;0.70;;;;;;;-143.84;44.50;45218.53;5090406;28;20439;-57
2024/01/22 08:56:45;;;;;;;1.20;1.10;;;;;;;-143.84;44.24;45186.16;5090419;28;20498;-57
2024/01/22 08:59:14;;;;;;;1.57;1.03;;;;;;;-143.84;43.53;45193.78;5090783;28;20942;-57
2024/01/22 09:01:41;;;;;;;0.90;0.70;;;;;;;-143.84;43.36;45180.47;5090648;28;20447;-57
2024/01/22 09:04:08;;;;;;;0.80;0.53;;;;;;;-143.84;42.39;45195.69;5090232;28;20428;-57
2024/01/22 09:06:36;;;;;;;0.90;0.60;;;;;;;-143.84;42.56;45178.56;5090617;28;20459;-57
2024/01/22 09:09:05;;;;;;;2.90;1.20;;;;;;;-143.84;42.64;45186.16;5090059;28;20443;-58
2024/01/22 09:11:32;;;;;;;0.80;0.70;;;;;;;-143.84;42.08;45176.66;5089721;28;20484;-57
2024/01/22 09:13:59;;;;;;;0.80;0.60;;;;;;;-143.84;41.71;45178.56;5090318;28;20487;-57
2024/01/22 09:16:28;;;;;;;1.33;1.17;;;;;;;-143.84;41.22;45165.22;5090022;28;20443;-57
2024/01/22 09:18:57;;;;;;;2.00;1.27;;;;;;;-143.84;40.95;45176.66;5090467;28;20440;-57
2024/01/22 09:21:24;;;;;;;6.87;1.47;;;;;;;-143.84;39.72;45151.91;5089870;28;20447;-58
2024/01/22 09:23:51;;;;;;;1.00;0.77;;;;;;;-143.84;39.58;45159.50;5089896;28;20458;-57
2024/01/22 09:26:18;;;;;;;1.87;1.00;;;;;;;-143.84;39.15;45157.59;5089902;28;20501;-57
2024/01/22 09:28:45;;;;;;;6.20;1.60;;;;;;;-143.84;38.85;45130.94;5090031;28;20463;-57
2024/01/22 09:31:12;;;;;;;1.67;1.57;;;;;;;-143.84;38.56;45163.31;5089918;28;20459;-57
2024/01/22 09:33:41;;;;;;;2.20;1.20;;;;;;;-143.84;38.18;45136.66;5089466;28;20487;-58
2024/01/22 09:36:08;;;;;;;1.40;1.30;;;;;;;-143.84;38.35;45167.13;5089248;28;20459;-57
2024/01/22 09:38:35;;;;;;;0.93;0.83;;;;;;;-143.84;38.90;45148.09;5089464;28;20461;-58
2024/01/22 09:41:02;;;;;;;1.47;1.23;;;;;;;-143.84;38.78;45146.19;5089986;28;20428;-58
2024/01/22 09:43:30;;;;;;;0.90;0.83;;;;;;;-143.84;39.26;45148.09;5089557;28;20957;-58
2024/01/22 09:45:58;;;;;;;2.60;1.47;;;;;;;-143.84;39.16;45148.09;5089590;28;20459;-57
2024/01/22 09:48:25;;;;;;;0.90;0.80;;;;;;;-143.84;38.88;45155.69;5089378;28;21012;-57
2024/01/22 09:50:55;;;;;;;1.10;1.00;;;;;;;-143.84;38.52;45153.81;5088153;28;20444;-58
2024/01/22 09:53:23;;;;;;;1.70;1.60;;;;;;;-143.84;38.04;45163.31;5069328;28;20484;-57
2024/01/22 09:55:53;;;;;;;0.80;0.70;;;;;;;-143.84;37.77;45140.47;5069347;28;20441;-58
2024/01/22 09:58:26;;;;;;;3.83;1.60;;;;;;;-143.84;37.53;45136.66;5069436;28;20460;-58
2024/01/22 10:00:53;;;;;;;1.00;0.70;;;;;;;-143.84;36.58;45178.56;5068958;28;20468;-58
2024/01/22 10:03:21;;;;;;;2.70;1.67;;;;;;;-143.84;36.58;45163.31;5068935;28;20502;-58
2024/01/22 10:05:51;;;;;;;2.80;1.50;;;;;;;-143.84;37.67;45144.28;5069449;28;20440;-57
2024/01/22 10:08:20;;;;;;;1.33;1.23;;;;;;;-143.84;37.63;45174.75;5069198;28;20433;-57
2024/01/22 10:10:47;;;;;;;1.60;1.00;;;;;;;-143.84;38.24;45180.47;5068736;28;20448;-58
2024/01/22 10:13:14;;;;;;;1.40;1.27;;;;;;;-143.84;38.89;45157.59;5068898;28;20472;-57
2024/01/22 10:15:41;;;;;;;5.73;1.50;;;;;;;-143.84;39.38;45155.69;5068908;28;20472;-57
2024/01/22 10:18:11;;;;;;;1.00;0.90;;;;;;;-143.84;39.29;45163.31;5068787;28;20432;-57
2024/01/22 10:20:38;;;;;;;1.77;1.57;;;;;;;-143.84;38.95;45174.75;5068868;28;20448;-57
2024/01/22 10:23:06;;;;;;;3.03;1.80;;;;;;;-143.84;39.21;45159.50;5068850;28;20480;-57
2024/01/22 10:25:35;;;;;;;0.80;0.50;;;;;;;-143.84;39.52;45167.13;5068881;28;20433;-57
2024/01/22 10:28:10;;;;;;;2.10;1.53;;;;;;;-143.84;39.97;45172.84;5068891;28;20790;-58
2024/01/22 10:30:37;;;;;;;1.87;1.77;;;;;;;-143.84;40.23;45155.69;5068550;28;20505;-58
2024/01/22 10:33:16;;;;;;;0.83;0.63;;;;;;;-143.84;40.21;45180.47;5068597;28;20484;-57
2024/01/22 10:35:44;;;;;;;0.87;0.70;;;;;;;-143.84;40.58;45174.75;5068832;28;20432;-57
2024/01/22 10:38:12;;;;;;;2.50;0.90;;;;;;;-143.84;41.48;45170.94;5068922;28;20483;-57
2024/01/22 10:40:42;;;;;;;1.00;0.90;;;;;;;-143.84;41.85;45170.94;5068793;28;20934;-57
2024/01/22 10:43:24;;;;;;;1.13;1.03;;;;;;;-143.84;43.05;45189.97;5068870;28;20448;-57
2024/01/22 10:45:51;;;;;;;2.70;0.90;;;;;;;-143.84;43.49;45193.78;5068725;28;20528;-57
2024/01/22 10:48:19;;;;;;;2.97;1.13;;;;;;;-143.84;43.92;45188.06;5069896;28;20587;-57
2024/01/22 10:50:46;;;;;;;1.00;0.70;;;;;;;-143.84;43.75;45180.47;5072723;28;20432;-57
2024/01/22 10:53:13;;;;;;;0.90;0.70;;;;;;;-143.84;43.29;45193.78;5072522;28;20476;-57
2024/01/22 10:55:45;;;;;;;2.53;1.50;;;;;;;-143.84;43.59;45169.03;5072552;28;20478;-57
2024/01/22 10:58:20;;;;;;;0.90;0.80;;;;;;;-143.84;42.89;45184.25;5072497;28;20494;-58
2024/01/22 11:00:48;;;;;;;0.80;0.53;;;;;;;-143.84;42.22;45172.84;5072928;28;20432;-58
2024/01/22 11:03:19;;;;;;;0.80;0.70;;;;;;;-143.84;42.07;45188.06;5072595;28;20826;-57
2024/01/22 11:05:48;;;;;;;0.80;0.53;;;;;;;-143.84;41.89;45163.31;5072273;28;20425;-58
2024/01/22 11:08:18;;;;;;;1.60;0.87;;;;;;;-143.84;42.36;45153.81;5072385;28;20449;-57
2024/01/22 11:10:51;;;;;;;1.00;0.90;;;;;;;-143.84;42.03;45163.31;5072088;28;21230;-57
2024/01/22 11:13:19;;;;;;;2.37;1.00;;;;;;;-143.84;41.88;45146.19;5072225;28;20488;-58
2024/01/22 11:15:46;;;;;;;3.80;1.60;;;;;;;-143.84;40.88;45159.50;5072021;28;20445;-57
2024/01/22 11:18:14;;;;;;;1.20;0.90;;;;;;;-143.84;41.25;45195.69;5072318;28;20436;-58